Time;durP1;ratioP1;P1;durP2;ratioP2;P2;SDS_P1;SDS_P2;PMS_P1;PMS_P2;Temp;Humidity;BMP_temperature;BMP_pressure;BME280_temperature;BME280_humidity;BME280_pressure;Samples;Min_cycle;Max_cycle;Signal;HPM_P1;HPM_P2
2022/11/19 00:01:03;;;;;;;1.60;1.20;;;9.10;98.20;;;;;;5012758;22;20971;-75
2022/11/19 00:03:33;;;;;;;1.60;1.20;;;9.10;98.20;;;;;;5041885;28;20485;-75
2022/11/19 00:06:05;;;;;;;1.60;1.20;;;9.00;98.20;;;;;;5014122;28;20486;-75
2022/11/19 00:08:34;;;;;;;1.63;1.30;;;9.00;98.20;;;;;;5008457;28;20470;-75
2022/11/19 00:11:06;;;;;;;1.60;1.10;;;9.00;98.20;;;;;;5000040;28;21027;-75
2022/11/19 00:13:33;;;;;;;2.23;2.03;;;9.00;98.20;;;;;;5027710;28;20456;-74
2022/11/19 00:16:06;;;;;;;1.70;1.50;;;9.00;98.20;;;;;;5018609;28;20510;-75
2022/11/19 00:18:33;;;;;;;1.93;1.53;;;9.00;98.20;;;;;;5063960;28;20458;-74
2022/11/19 00:21:05;;;;;;;1.60;1.10;;;9.00;98.20;;;;;;5039871;28;20502;-74
2022/11/19 00:23:34;;;;;;;1.60;1.20;;;9.00;98.20;;;;;;5047250;28;20462;-75
2022/11/19 00:26:06;;;;;;;1.60;1.20;;;9.00;98.20;;;;;;5037731;28;20673;-74
2022/11/19 00:28:34;;;;;;;1.60;1.20;;;9.00;98.20;;;;;;5027915;28;20550;-74
2022/11/19 00:31:02;;;;;;;1.60;1.23;;;9.00;98.20;;;;;;5020495;28;20491;-75
2022/11/19 00:33:30;;;;;;;1.60;1.20;;;8.90;98.20;;;;;;5048604;28;20488;-75
2022/11/19 00:35:57;;;;;;;1.60;1.20;;;9.00;98.20;;;;;;5023150;28;20826;-76
2022/11/19 00:38:23;;;;;;;1.60;1.20;;;9.00;98.20;;;;;;5041362;28;20470;-75
2022/11/19 01:21:36;;;;;;;1.63;1.20;;;9.10;98.20;;;;;;5022825;28;20478;-75
2022/11/19 01:24:04;;;;;;;1.63;1.20;;;9.00;98.20;;;;;;5045135;28;20463;-75
2022/11/19 01:26:32;;;;;;;1.60;1.10;;;9.00;98.20;;;;;;5031936;28;20494;-74
2022/11/19 01:28:59;;;;;;;1.60;1.20;;;9.10;98.20;;;;;;5025948;28;20814;-75
2022/11/19 01:31:28;;;;;;;1.60;1.20;;;9.10;98.20;;;;;;5020945;28;20486;-75
2022/11/19 01:33:56;;;;;;;1.60;1.10;;;9.00;98.20;;;;;;5037738;28;20846;-76
2022/11/19 01:36:24;;;;;;;1.60;1.20;;;9.00;98.20;;;;;;5022802;28;20498;-75
2022/11/19 01:38:53;;;;;;;1.60;1.20;;;9.00;98.20;;;;;;5040055;28;20828;-76
2022/11/19 01:41:22;;;;;;;1.60;1.20;;;9.00;98.20;;;;;;5013870;28;20499;-76
2022/11/19 01:43:51;;;;;;;1.60;1.20;;;8.90;98.20;;;;;;5014904;28;20463;-75
2022/11/19 01:46:19;;;;;;;1.60;1.20;;;8.80;98.20;;;;;;5020282;28;20478;-75
2022/11/19 01:48:51;;;;;;;1.60;1.30;;;8.80;98.20;;;;;;5031215;28;20467;-75
2022/11/19 01:51:23;;;;;;;1.60;1.20;;;8.70;98.20;;;;;;5020435;28;20486;-75
2022/11/19 01:53:54;;;;;;;1.60;1.20;;;8.60;98.20;;;;;;5048088;28;20806;-75
2022/11/19 01:56:23;;;;;;;1.60;1.20;;;8.50;98.20;;;;;;5032984;28;20486;-75
2022/11/19 01:58:55;;;;;;;1.60;1.20;;;8.50;98.20;;;;;;5047113;28;20458;-74
2022/11/19 02:01:22;;;;;;;1.60;1.30;;;8.40;98.20;;;;;;5035868;28;20929;-75
2022/11/19 02:03:50;;;;;;;1.60;1.20;;;8.40;98.20;;;;;;5046571;28;20462;-75
2022/11/19 02:06:17;;;;;;;1.70;1.30;;;8.30;98.20;;;;;;5036387;28;20533;-76
2022/11/19 02:08:47;;;;;;;1.70;1.37;;;8.30;98.20;;;;;;5047341;28;20459;-75
2022/11/19 02:11:40;;;;;;;1.60;1.20;;;8.20;98.20;;;;;;5038545;28;20500;-75
2022/11/19 02:14:31;;;;;;;1.60;1.20;;;8.10;98.20;;;;;;5049265;28;20821;-76
2022/11/19 02:17:07;;;;;;;1.60;1.20;;;8.00;98.20;;;;;;5020300;28;20486;-75
2022/11/19 02:19:59;;;;;;;1.67;1.20;;;7.90;98.20;;;;;;5033903;28;20459;-75
2022/11/19 02:22:48;;;;;;;1.60;1.20;;;7.90;98.20;;;;;;5042622;28;21197;-75
2022/11/19 02:25:33;;;;;;;1.60;1.20;;;7.80;98.20;;;;;;5065698;28;20490;-75
2022/11/19 02:28:25;;;;;;;1.63;1.20;;;7.80;98.20;;;;;;5037838;28;20474;-76
2022/11/19 02:30:56;;;;;;;1.70;1.30;;;7.70;98.20;;;;;;5037299;28;20462;-74
2022/11/19 02:33:29;;;;;;;1.60;1.20;;;7.70;98.20;;;;;;5045424;28;20472;-76
2022/11/19 02:36:03;;;;;;;1.60;1.20;;;7.70;98.20;;;;;;5036406;28;20459;-75
2022/11/19 02:38:37;;;;;;;1.60;1.20;;;7.70;98.20;;;;;;5027559;28;20465;-75
2022/11/19 02:44:57;;;;;;;1.63;1.20;;;7.60;98.20;;;;;;5010491;28;20459;-74
2022/11/19 02:46:53;;;;;;;1.70;1.40;;;7.50;98.20;;;;;;5022654;28;20532;-75
2022/11/19 02:49:25;;;;;;;1.60;1.20;;;7.50;98.20;;;;;;5023440;28;20463;-75
2022/11/19 02:51:53;;;;;;;1.63;1.30;;;7.40;98.20;;;;;;5014493;28;20517;-75
2022/11/19 02:54:19;;;;;;;1.70;1.50;;;7.30;98.20;;;;;;5045214;28;20469;-76
2022/11/19 02:56:50;;;;;;;1.63;1.20;;;7.30;98.20;;;;;;5028562;28;20502;-75
2022/11/19 03:04:53;;;;;;;1.60;1.27;;;7.20;98.20;;;;;;5030736;28;20516;-75
2022/11/19 03:07:21;;;;;;;1.70;1.30;;;7.20;98.20;;;;;;5016852;28;20486;-76
2022/11/19 03:09:55;;;;;;;1.67;1.30;;;7.10;98.20;;;;;;5032996;28;20939;-75
2022/11/19 03:12:30;;;;;;;1.60;1.20;;;7.10;98.20;;;;;;5035955;28;20524;-76
2022/11/19 03:18:01;;;;;;;1.70;1.40;;;7.00;98.20;;;;;;5022939;28;20803;-75
2022/11/19 03:20:35;;;;;;;1.60;1.20;;;7.00;98.20;;;;;;5019777;28;20463;-75
2022/11/19 03:23:08;;;;;;;1.67;1.30;;;7.00;98.20;;;;;;5047909;28;20491;-76
2022/11/19 03:25:40;;;;;;;2.00;1.77;;;6.90;98.20;;;;;;5056659;28;20869;-75
2022/11/19 03:28:12;;;;;;;1.70;1.30;;;6.90;98.20;;;;;;5035898;28;20482;-75
2022/11/19 03:30:43;;;;;;;1.70;1.33;;;6.90;98.20;;;;;;5047491;28;21036;-75
2022/11/19 03:33:18;;;;;;;1.60;1.20;;;6.90;98.20;;;;;;5030982;28;20496;-75
2022/11/19 03:35:48;;;;;;;1.60;1.20;;;6.90;98.20;;;;;;5046926;28;20921;-75
2022/11/19 03:38:21;;;;;;;1.97;1.70;;;6.90;98.20;;;;;;5016085;28;20478;-75
2022/11/19 03:40:49;;;;;;;1.70;1.30;;;6.90;98.20;;;;;;5021684;28;20554;-74
2022/11/19 03:43:20;;;;;;;1.60;1.30;;;6.90;98.20;;;;;;5039961;28;20486;-75
2022/11/19 03:45:49;;;;;;;4.80;4.50;;;6.80;98.20;;;;;;5024572;28;20490;-75
2022/11/19 03:48:22;;;;;;;1.60;1.30;;;6.80;98.20;;;;;;5016995;28;20486;-75
2022/11/19 03:50:54;;;;;;;1.60;1.30;;;6.90;98.20;;;;;;5026056;28;20514;-76
2022/11/19 03:53:22;;;;;;;1.60;1.30;;;6.80;98.20;;;;;;5061192;28;20944;-75
2022/11/19 03:55:54;;;;;;;1.60;1.30;;;6.90;98.20;;;;;;5039721;28;20477;-75
2022/11/19 03:58:24;;;;;;;1.60;1.30;;;6.80;98.20;;;;;;5047565;28;20457;-75
2022/11/19 04:00:51;;;;;;;1.63;1.30;;;6.70;98.20;;;;;;5023669;28;20459;-75
2022/11/19 04:03:19;;;;;;;1.63;1.30;;;6.70;98.20;;;;;;5066819;28;20472;-75
2022/11/19 04:05:46;;;;;;;1.70;1.30;;;6.70;98.20;;;;;;5070459;28;20846;-75
2022/11/19 04:08:13;;;;;;;1.60;1.30;;;6.60;98.20;;;;;;5003338;28;20475;-74
2022/11/19 04:10:40;;;;;;;1.63;1.30;;;6.60;98.20;;;;;;5031139;28;20463;-75
2022/11/19 04:13:07;;;;;;;1.60;1.20;;;6.50;98.20;;;;;;5030967;28;20486;-75
2022/11/19 04:15:33;;;;;;;1.60;1.30;;;6.40;98.20;;;;;;5029575;28;20458;-74
2022/11/19 04:18:00;;;;;;;1.60;1.30;;;6.40;98.20;;;;;;5032240;28;21068;-75
2022/11/19 04:20:29;;;;;;;1.63;1.27;;;6.40;98.20;;;;;;5011129;28;20464;-75
2022/11/19 04:22:58;;;;;;;1.60;1.30;;;6.40;98.20;;;;;;5046594;28;20572;-74
2022/11/19 04:25:25;;;;;;;1.67;1.33;;;6.30;98.20;;;;;;5041784;28;20486;-75
2022/11/19 04:27:52;;;;;;;1.60;1.30;;;6.30;98.20;;;;;;5036752;28;21243;-73
2022/11/19 04:30:20;;;;;;;1.63;1.30;;;6.30;98.20;;;;;;5030513;28;20496;-75
2022/11/19 04:32:47;;;;;;;1.63;1.30;;;6.30;98.20;;;;;;5047294;28;21018;-75
2022/11/19 04:35:16;;;;;;;1.67;1.30;;;6.20;98.20;;;;;;5029894;28;20455;-74
2022/11/19 04:37:45;;;;;;;1.70;1.40;;;6.20;98.20;;;;;;5034276;28;20502;-74
2022/11/19 04:40:13;;;;;;;1.70;1.40;;;6.20;98.20;;;;;;5030655;28;21015;-75
2022/11/19 04:42:40;;;;;;;1.60;1.30;;;6.10;98.20;;;;;;5029206;28;20497;-74
2022/11/19 04:45:10;;;;;;;1.60;1.30;;;6.10;98.20;;;;;;5027852;28;20463;-75
2022/11/19 04:47:38;;;;;;;1.60;1.30;;;6.10;98.20;;;;;;5032683;28;20483;-75
2022/11/19 04:50:05;;;;;;;1.60;1.30;;;6.10;98.20;;;;;;5031778;28;20557;-74
2022/11/19 04:52:33;;;;;;;1.60;1.30;;;6.00;98.20;;;;;;5017734;28;20564;-75
2022/11/19 04:55:02;;;;;;;1.60;1.30;;;6.10;98.20;;;;;;5027535;28;20474;-75
2022/11/19 04:57:28;;;;;;;1.70;1.40;;;6.10;98.20;;;;;;5029375;28;20489;-74
2022/11/19 04:59:55;;;;;;;1.60;1.30;;;6.10;98.20;;;;;;5030305;28;20460;-75
2022/11/19 05:02:22;;;;;;;1.60;1.30;;;6.10;98.20;;;;;;5016870;28;20487;-75
2022/11/19 05:04:48;;;;;;;1.90;1.70;;;6.10;98.20;;;;;;5036204;28;20467;-75
2022/11/19 05:07:15;;;;;;;1.60;1.30;;;6.00;98.20;;;;;;5023846;28;20874;-75
2022/11/19 05:09:42;;;;;;;1.70;1.40;;;6.00;98.20;;;;;;5029599;28;20621;-75
2022/11/19 05:12:10;;;;;;;1.60;1.30;;;6.00;98.20;;;;;;5016695;28;20494;-75
2022/11/19 05:14:37;;;;;;;1.60;1.30;;;6.00;98.20;;;;;;5025671;28;20463;-76
2022/11/19 05:17:04;;;;;;;1.60;1.30;;;6.00;98.20;;;;;;5033675;28;20485;-75
2022/11/19 05:19:31;;;;;;;1.67;1.30;;;6.00;98.20;;;;;;5054710;28;20497;-73
2022/11/19 05:21:58;;;;;;;1.63;1.30;;;6.00;98.20;;;;;;5035370;28;20505;-75
2022/11/19 05:24:25;;;;;;;1.63;1.30;;;6.00;98.20;;;;;;5035117;28;20833;-75
2022/11/19 05:26:52;;;;;;;1.60;1.30;;;6.00;98.20;;;;;;5024311;28;20509;-74
2022/11/19 05:29:20;;;;;;;1.60;1.30;;;6.00;98.20;;;;;;5028481;28;20467;-75
2022/11/19 05:31:46;;;;;;;1.70;1.40;;;6.00;98.20;;;;;;5023724;28;20490;-76
2022/11/19 05:34:13;;;;;;;1.70;1.30;;;5.90;98.20;;;;;;5035314;28;20463;-73
2022/11/19 05:36:40;;;;;;;1.63;1.30;;;6.00;98.20;;;;;;5018825;28;20529;-72
2022/11/19 05:39:07;;;;;;;1.70;1.40;;;6.00;98.20;;;;;;5027044;28;20851;-74
2022/11/19 05:41:34;;;;;;;1.63;1.40;;;6.00;98.20;;;;;;5021293;28;20478;-74
2022/11/19 05:44:01;;;;;;;1.67;1.33;;;6.00;98.20;;;;;;5030972;28;20460;-74
2022/11/19 05:46:29;;;;;;;1.63;1.30;;;6.00;98.20;;;;;;5018784;28;20474;-74
2022/11/19 05:48:56;;;;;;;1.60;1.30;;;6.00;98.20;;;;;;5039994;28;20458;-75
2022/11/19 05:51:23;;;;;;;1.60;1.30;;;5.90;98.20;;;;;;5020455;28;20490;-75
2022/11/19 05:53:50;;;;;;;1.70;1.40;;;5.90;98.20;;;;;;5039105;28;20467;-76
2022/11/19 05:56:17;;;;;;;1.70;1.43;;;5.80;98.20;;;;;;5021886;28;20482;-75
2022/11/19 05:58:44;;;;;;;1.60;1.30;;;5.80;98.20;;;;;;5039354;28;20469;-75
2022/11/19 06:01:10;;;;;;;1.60;1.30;;;5.80;98.20;;;;;;5018212;28;20491;-75
2022/11/19 06:03:39;;;;;;;1.60;1.30;;;5.80;98.20;;;;;;5025867;28;21121;-75
2022/11/19 06:06:07;;;;;;;1.67;1.30;;;5.80;98.20;;;;;;5012960;28;20495;-72
2022/11/19 06:08:33;;;;;;;2.23;2.00;;;5.80;98.20;;;;;;5040274;28;20463;-72
2022/11/19 06:11:02;;;;;;;1.67;1.40;;;5.80;98.20;;;;;;5018733;28;20470;-72
2022/11/19 06:13:28;;;;;;;1.63;1.30;;;5.90;98.20;;;;;;5056261;28;20458;-74
2022/11/19 06:15:55;;;;;;;1.70;1.40;;;5.90;98.20;;;;;;5033369;28;20478;-74
2022/11/19 06:18:22;;;;;;;1.70;1.30;;;5.90;98.20;;;;;;5046969;28;20469;-72
2022/11/19 06:20:50;;;;;;;1.60;1.30;;;5.90;98.20;;;;;;5042049;28;20462;-75
2022/11/19 06:23:17;;;;;;;1.70;1.40;;;5.90;98.20;;;;;;5061560;28;20862;-72
2022/11/19 06:25:43;;;;;;;1.60;1.30;;;5.90;98.20;;;;;;5049572;28;20497;-74
2022/11/19 06:28:10;;;;;;;1.60;1.30;;;5.90;98.20;;;;;;5035420;28;20604;-75
2022/11/19 06:30:37;;;;;;;1.60;1.30;;;5.90;98.20;;;;;;5046833;28;20466;-75
2022/11/19 06:33:04;;;;;;;1.60;1.30;;;6.00;98.20;;;;;;5032022;28;20490;-74
2022/11/19 06:35:31;;;;;;;1.70;1.40;;;6.00;98.20;;;;;;5047823;28;20466;-75
2022/11/19 06:37:59;;;;;;;1.60;1.30;;;6.00;98.20;;;;;;5032502;28;20601;-75
2022/11/19 06:40:26;;;;;;;1.63;1.40;;;6.00;98.20;;;;;;5040510;28;20463;-75
2022/11/19 06:42:52;;;;;;;1.60;1.30;;;6.00;98.20;;;;;;5030774;28;20482;-75
2022/11/19 06:45:19;;;;;;;1.60;1.30;;;6.00;98.20;;;;;;5041558;28;20471;-75
2022/11/19 06:47:48;;;;;;;2.13;1.93;;;6.00;98.20;;;;;;5033117;28;20478;-75
2022/11/19 06:50:16;;;;;;;1.60;1.30;;;6.00;98.20;;;;;;5048054;28;20458;-74
2022/11/19 06:52:42;;;;;;;1.67;1.40;;;5.80;98.20;;;;;;5048779;28;20580;-72
2022/11/19 06:55:12;;;;;;;1.60;1.30;;;5.80;98.20;;;;;;5028791;28;20471;-75
2022/11/19 06:57:39;;;;;;;1.60;1.30;;;5.80;98.20;;;;;;5037050;28;20484;-73
2022/11/19 07:00:06;;;;;;;1.60;1.30;;;5.70;98.20;;;;;;5047771;28;20454;-74
2022/11/19 07:02:33;;;;;;;1.70;1.40;;;5.60;98.20;;;;;;5045108;28;20493;-74
2022/11/19 07:05:00;;;;;;;1.60;1.30;;;5.60;98.20;;;;;;5026889;28;20470;-75
2022/11/19 07:07:26;;;;;;;1.60;1.33;;;5.50;98.20;;;;;;5043173;28;20481;-76
2022/11/19 07:09:53;;;;;;;1.63;1.40;;;5.40;98.20;;;;;;5050137;28;20462;-76
2022/11/19 07:12:21;;;;;;;1.60;1.30;;;5.40;98.20;;;;;;5047920;28;20845;-75
2022/11/19 07:14:48;;;;;;;1.70;1.40;;;5.40;98.20;;;;;;5030486;28;20463;-76
2022/11/19 07:17:15;;;;;;;1.63;1.33;;;5.40;98.20;;;;;;5023922;28;20478;-76
2022/11/19 07:19:42;;;;;;;1.60;1.30;;;5.40;98.20;;;;;;5030324;28;20743;-74
2022/11/19 07:22:09;;;;;;;1.60;1.30;;;5.40;98.20;;;;;;5028186;28;20607;-74
2022/11/19 07:24:36;;;;;;;1.60;1.30;;;5.40;98.20;;;;;;5030262;28;20467;-74
2022/11/19 07:27:03;;;;;;;1.67;1.40;;;5.40;98.20;;;;;;5029136;28;20483;-75
2022/11/19 07:29:31;;;;;;;1.63;1.37;;;5.40;98.20;;;;;;5037232;28;20869;-74
2022/11/19 07:31:58;;;;;;;1.70;1.50;;;5.40;98.20;;;;;;5019310;28;20860;-74
2022/11/19 07:34:25;;;;;;;1.63;1.30;;;5.40;98.20;;;;;;5020962;28;20459;-74
2022/11/19 07:36:51;;;;;;;1.70;1.40;;;5.40;98.20;;;;;;5020865;28;20483;-75
2022/11/19 07:39:18;;;;;;;1.60;1.30;;;5.40;98.20;;;;;;5043413;28;20467;-74
2022/11/19 07:44:30;;;;;;;1.60;1.30;;;5.40;98.20;;;;;;5029543;28;20986;-74
2022/11/19 07:46:57;;;;;;;1.70;1.33;;;5.40;98.20;;;;;;5029956;28;20486;-72
2022/11/19 07:49:25;;;;;;;1.60;1.33;;;5.30;98.20;;;;;;5039577;28;20454;-74
2022/11/19 07:51:52;;;;;;;1.60;1.30;;;5.30;98.20;;;;;;5030421;28;20497;-72
2022/11/19 07:54:19;;;;;;;1.60;1.30;;;5.30;98.20;;;;;;5031735;28;21083;-74
2022/11/19 07:56:46;;;;;;;1.70;1.40;;;5.30;98.20;;;;;;5027842;28;20944;-73
2022/11/19 07:59:13;;;;;;;1.67;1.40;;;5.30;98.20;;;;;;5049490;28;20458;-74
2022/11/19 08:01:41;;;;;;;1.70;1.40;;;5.30;98.20;;;;;;5038374;28;20753;-74
2022/11/19 08:04:08;;;;;;;1.70;1.50;;;5.30;98.20;;;;;;5047036;28;20458;-72
2022/11/19 08:06:35;;;;;;;1.70;1.30;;;5.20;98.20;;;;;;5027840;28;20478;-74
2022/11/19 08:09:03;;;;;;;1.60;1.30;;;5.20;98.20;;;;;;5048690;28;20462;-74
2022/11/19 08:11:30;;;;;;;1.80;1.70;;;5.20;98.20;;;;;;5038997;28;20481;-74
2022/11/19 08:13:58;;;;;;;1.70;1.43;;;5.20;98.20;;;;;;5047114;28;20736;-74
2022/11/19 08:19:13;;;;;;;1.70;1.40;;;5.20;98.20;;;;;;5049578;28;20514;-72
2022/11/19 08:21:42;;;;;;;1.60;1.30;;;5.20;98.20;;;;;;5038653;28;20540;-73
2022/11/19 08:24:09;;;;;;;1.70;1.50;;;5.20;98.20;;;;;;5047506;28;20462;-72
2022/11/19 08:26:36;;;;;;;1.60;1.30;;;5.20;98.20;;;;;;5036962;28;20503;-72
2022/11/19 08:29:04;;;;;;;1.63;1.30;;;5.20;98.20;;;;;;5038236;28;20764;-72
2022/11/19 08:31:30;;;;;;;1.80;1.60;;;5.20;98.20;;;;;;5024559;28;20490;-73
2022/11/19 08:33:57;;;;;;;1.63;1.40;;;5.20;98.20;;;;;;5038274;28;20470;-74
2022/11/19 08:36:25;;;;;;;1.63;1.30;;;5.20;98.20;;;;;;5019662;28;20812;-74
2022/11/19 08:38:52;;;;;;;1.63;1.40;;;5.20;98.20;;;;;;5027673;28;20464;-74
2022/11/19 08:44:03;;;;;;;1.60;1.30;;;5.20;98.20;;;;;;5044305;28;20449;-75
2022/11/19 08:46:30;;;;;;;1.60;1.30;;;5.20;98.20;;;;;;5030746;28;20475;-74
2022/11/19 08:48:57;;;;;;;2.90;2.70;;;5.20;98.20;;;;;;5028288;28;20459;-72
2022/11/19 08:51:26;;;;;;;1.60;1.30;;;5.20;98.20;;;;;;5017843;28;20483;-71
2022/11/19 08:53:52;;;;;;;1.60;1.30;;;5.30;98.20;;;;;;5035432;28;20469;-71
2022/11/19 08:56:20;;;;;;;1.60;1.40;;;5.30;98.20;;;;;;5037984;28;20489;-72
2022/11/19 08:58:47;;;;;;;1.60;1.30;;;5.30;98.20;;;;;;5046183;28;20497;-72
2022/11/19 09:01:15;;;;;;;1.67;1.30;;;5.30;98.20;;;;;;5039974;28;20793;-71
2022/11/19 09:03:42;;;;;;;1.67;1.37;;;5.30;98.20;;;;;;5059455;28;20473;-73
2022/11/19 09:06:10;;;;;;;1.60;1.30;;;5.40;98.20;;;;;;5037679;28;21020;-72
2022/11/19 09:08:39;;;;;;;1.63;1.37;;;5.40;98.20;;;;;;5061363;28;20470;-72
2022/11/19 09:11:07;;;;;;;1.63;1.37;;;5.40;98.20;;;;;;5038698;28;20462;-72
2022/11/19 09:13:34;;;;;;;1.63;1.30;;;5.50;98.20;;;;;;5058847;28;20516;-71
2022/11/19 09:16:01;;;;;;;1.70;1.47;;;5.50;98.20;;;;;;5035007;28;20466;-72
2022/11/19 09:18:28;;;;;;;1.60;1.30;;;5.50;98.20;;;;;;5061155;28;20458;-71
2022/11/19 09:20:56;;;;;;;3.40;3.20;;;5.50;98.20;;;;;;5038131;28;20469;-72
2022/11/19 09:23:24;;;;;;;1.97;1.77;;;5.60;98.20;;;;;;5048090;28;20470;-72
2022/11/19 09:26:03;;;;;;;1.60;1.30;;;5.50;98.20;;;;;;5037751;28;20462;-71
2022/11/19 09:28:31;;;;;;;1.70;1.30;;;5.50;98.20;;;;;;5045053;28;20494;-72
2022/11/19 09:30:58;;;;;;;1.60;1.30;;;5.50;98.20;;;;;;5038666;28;20462;-71
2022/11/19 09:33:25;;;;;;;1.60;1.30;;;5.50;98.20;;;;;;5059718;28;20462;-71
2022/11/19 09:35:52;;;;;;;1.70;1.57;;;5.50;98.20;;;;;;5037588;28;20497;-72
2022/11/19 09:38:19;;;;;;;1.70;1.40;;;5.50;98.20;;;;;;5060684;28;20450;-72
2022/11/19 09:40:47;;;;;;;1.60;1.40;;;5.50;98.20;;;;;;5047928;28;20844;-72
2022/11/19 09:43:22;;;;;;;1.60;1.30;;;5.60;98.20;;;;;;5034467;28;20475;-72
2022/11/19 09:46:01;;;;;;;1.60;1.30;;;5.60;98.20;;;;;;5037285;28;20464;-71
2022/11/19 09:48:36;;;;;;;1.60;1.30;;;5.60;98.20;;;;;;5059366;28;20497;-72
2022/11/19 09:51:07;;;;;;;1.60;1.30;;;5.60;98.20;;;;;;5033423;28;20477;-72
2022/11/19 09:53:44;;;;;;;1.60;1.30;;;5.60;98.20;;;;;;5047948;28;20467;-71
2022/11/19 09:56:16;;;;;;;1.70;1.40;;;5.60;98.20;;;;;;5016275;28;20478;-72
2022/11/19 09:58:45;;;;;;;1.70;1.40;;;5.70;98.20;;;;;;5036938;28;20997;-71
2022/11/19 10:01:14;;;;;;;1.60;1.30;;;5.70;98.20;;;;;;5033925;28;20824;-72
2022/11/19 10:03:43;;;;;;;1.60;1.40;;;5.70;98.20;;;;;;5043300;28;20858;-72
2022/11/19 10:06:29;;;;;;;1.60;1.30;;;5.70;98.20;;;;;;5031597;28;20551;-72
2022/11/19 10:09:24;;;;;;;1.60;1.30;;;5.70;98.20;;;;;;5042078;28;20464;-72
2022/11/19 10:12:06;;;;;;;1.67;1.30;;;5.80;98.20;;;;;;5027189;28;21003;-72
2022/11/19 10:14:55;;;;;;;1.60;1.30;;;5.80;98.20;;;;;;5043118;28;20465;-72
2022/11/19 10:17:31;;;;;;;1.60;1.30;;;5.70;98.20;;;;;;5032905;28;20479;-72
2022/11/19 10:20:11;;;;;;;1.60;1.30;;;5.70;98.20;;;;;;5046791;28;20466;-72
2022/11/19 10:22:42;;;;;;;1.60;1.30;;;5.80;98.20;;;;;;5032657;28;20577;-73
2022/11/19 10:25:16;;;;;;;1.67;1.40;;;5.80;98.20;;;;;;5029501;28;20467;-73
2022/11/19 10:27:48;;;;;;;1.60;1.30;;;5.80;98.20;;;;;;5029255;28;20493;-72
2022/11/19 10:30:20;;;;;;;1.60;1.30;;;5.90;98.20;;;;;;5042261;28;20474;-72
2022/11/19 10:32:54;;;;;;;1.70;1.40;;;5.80;98.20;;;;;;5029485;28;20482;-72
2022/11/19 10:35:26;;;;;;;1.70;1.50;;;5.70;98.20;;;;;;5041983;28;20465;-72
2022/11/19 10:37:58;;;;;;;1.70;1.40;;;5.70;98.20;;;;;;5030534;28;20482;-71
2022/11/19 10:40:27;;;;;;;1.60;1.30;;;5.70;98.20;;;;;;5042940;28;20904;-73
2022/11/19 10:42:58;;;;;;;1.60;1.20;;;5.80;98.20;;;;;;5029814;28;21076;-73
2022/11/19 10:45:28;;;;;;;1.60;1.30;;;5.80;98.20;;;;;;5042229;28;20590;-73
2022/11/19 10:48:01;;;;;;;1.67;1.40;;;5.80;98.20;;;;;;5029254;28;20521;-72
2022/11/19 10:50:28;;;;;;;1.63;1.30;;;5.70;98.20;;;;;;5041928;28;20545;-72
2022/11/19 10:52:57;;;;;;;1.60;1.30;;;5.80;98.20;;;;;;5019756;28;20481;-72
2022/11/19 10:55:28;;;;;;;1.70;1.50;;;5.80;98.20;;;;;;5030678;28;20776;-72
2022/11/19 10:58:08;;;;;;;1.60;1.27;;;5.80;98.20;;;;;;5017993;28;20562;-72
2022/11/19 11:00:38;;;;;;;1.60;1.20;;;5.80;98.20;;;;;;5024269;28;20462;-72
2022/11/19 11:03:11;;;;;;;2.03;1.83;;;5.70;98.20;;;;;;5014420;28;20551;-72
2022/11/19 11:05:55;;;;;;;1.63;1.40;;;5.70;98.20;;;;;;5029443;28;20466;-72
2022/11/19 11:08:22;;;;;;;1.60;1.20;;;5.60;98.20;;;;;;5000722;28;20548;-71
2022/11/19 11:10:52;;;;;;;1.60;1.20;;;5.70;98.20;;;;;;5018115;28;20604;-72
2022/11/19 11:16:24;;;;;;;1.60;1.40;;;5.60;98.20;;;;;;4995437;28;20523;-73
2022/11/19 11:18:54;;;;;;;1.67;1.30;;;5.60;98.20;;;;;;5042596;28;20567;-73
2022/11/19 11:21:35;;;;;;;1.60;1.30;;;5.60;98.20;;;;;;5038284;28;20488;-72
2022/11/19 11:24:04;;;;;;;1.60;1.23;;;5.70;98.20;;;;;;5054256;28;20462;-72
2022/11/19 11:26:33;;;;;;;1.70;1.40;;;5.70;98.20;;;;;;5041219;28;21052;-72
2022/11/19 11:29:03;;;;;;;1.60;1.30;;;5.70;98.20;;;;;;5056084;28;20566;-73
2022/11/19 11:31:37;;;;;;;1.60;1.23;;;5.80;98.20;;;;;;5035510;28;21059;-72
2022/11/19 11:34:06;;;;;;;1.60;1.20;;;5.80;98.20;;;;;;5037372;28;20792;-72
2022/11/19 11:36:35;;;;;;;1.70;1.40;;;5.90;98.20;;;;;;5023780;28;20613;-71
2022/11/19 11:39:05;;;;;;;1.70;1.50;;;6.00;98.20;;;;;;5038357;28;20463;-72
2022/11/19 11:41:35;;;;;;;1.60;1.30;;;6.00;98.20;;;;;;5022096;28;20490;-72
2022/11/19 11:44:05;;;;;;;2.23;2.03;;;6.00;98.20;;;;;;5036247;28;20952;-73
2022/11/19 11:46:41;;;;;;;1.63;1.30;;;6.00;98.20;;;;;;5021136;28;20497;-72
2022/11/19 11:49:22;;;;;;;1.63;1.30;;;6.10;98.20;;;;;;5036877;28;20486;-72
2022/11/19 11:51:57;;;;;;;1.60;1.20;;;6.10;98.20;;;;;;5022637;28;20519;-72
2022/11/19 11:54:24;;;;;;;1.60;1.30;;;6.10;98.20;;;;;;5033574;28;20462;-72
2022/11/19 11:56:51;;;;;;;1.67;1.30;;;6.10;98.20;;;;;;5025083;28;20486;-71
2022/11/19 11:59:25;;;;;;;1.60;1.20;;;6.10;98.20;;;;;;5030902;28;20976;-72
2022/11/19 12:02:01;;;;;;;1.60;1.30;;;6.00;98.20;;;;;;5026410;28;20489;-72
2022/11/19 12:04:28;;;;;;;1.60;1.30;;;5.90;98.20;;;;;;5032713;28;20565;-71
2022/11/19 12:07:14;;;;;;;1.60;1.30;;;5.90;98.20;;;;;;5025760;28;20509;-72
2022/11/19 12:09:49;;;;;;;1.63;1.30;;;5.80;98.20;;;;;;5030961;28;20463;-72
2022/11/19 12:12:27;;;;;;;1.60;1.20;;;5.80;98.20;;;;;;5025007;28;20596;-72
2022/11/19 12:14:58;;;;;;;1.60;1.20;;;5.80;98.20;;;;;;5030008;28;20592;-72
2022/11/19 12:17:40;;;;;;;1.63;1.30;;;5.70;98.20;;;;;;5024867;28;20907;-72
2022/11/19 12:20:23;;;;;;;1.63;1.30;;;5.70;98.20;;;;;;5026603;28;20959;-72
2022/11/19 12:23:07;;;;;;;1.67;1.40;;;5.80;98.20;;;;;;5011293;28;20493;-72
2022/11/19 12:25:38;;;;;;;1.60;1.30;;;5.80;98.20;;;;;;5025945;28;20462;-74
2022/11/19 12:28:26;;;;;;;1.67;1.30;;;5.80;98.20;;;;;;5011691;28;20685;-75
2022/11/19 12:31:04;;;;;;;1.67;1.30;;;5.80;98.20;;;;;;5013703;28;20463;-74
2022/11/19 12:33:50;;;;;;;1.60;1.30;;;5.80;98.20;;;;;;5040637;28;20839;-73
2022/11/19 12:36:26;;;;;;;1.63;1.30;;;5.80;98.20;;;;;;5033249;28;20488;-73
2022/11/19 12:39:01;;;;;;;1.60;1.30;;;5.80;98.20;;;;;;5044233;28;21195;-74
2022/11/19 12:42:07;;;;;;;1.70;1.30;;;5.80;98.20;;;;;;5033891;28;21075;-74
2022/11/19 12:44:44;;;;;;;1.60;1.30;;;5.80;98.20;;;;;;5005031;28;20465;-73
2022/11/19 12:47:24;;;;;;;1.67;1.30;;;5.80;98.20;;;;;;5032921;28;20488;-72
2022/11/19 12:50:21;;;;;;;1.60;1.30;;;5.80;98.20;;;;;;5047322;28;20466;-73
2022/11/19 12:53:12;;;;;;;1.60;1.30;;;5.80;98.20;;;;;;5032018;28;20493;-73
2022/11/19 12:55:47;;;;;;;1.63;1.30;;;5.80;98.20;;;;;;5044828;28;20467;-73
2022/11/19 12:58:24;;;;;;;1.60;1.30;;;5.80;98.20;;;;;;5003388;28;20477;-74
2022/11/19 13:00:56;;;;;;;1.60;1.20;;;5.80;98.20;;;;;;5012907;28;20617;-74
2022/11/19 13:03:40;;;;;;;1.60;1.30;;;5.80;98.20;;;;;;5017172;28;20970;-73
2022/11/19 13:06:12;;;;;;;1.63;1.30;;;5.90;98.20;;;;;;5012075;28;21476;-73
2022/11/19 13:08:42;;;;;;;1.60;1.30;;;6.00;98.20;;;;;;5024099;28;20486;-73
2022/11/19 13:11:13;;;;;;;1.60;1.30;;;6.00;98.20;;;;;;5012818;28;20573;-73
2022/11/19 13:13:45;;;;;;;1.60;1.30;;;5.90;98.20;;;;;;5036199;28;20470;-74
2022/11/19 13:16:15;;;;;;;1.60;1.23;;;6.00;98.20;;;;;;5026261;28;20477;-73
2022/11/19 13:18:45;;;;;;;1.60;1.30;;;6.00;98.20;;;;;;5026607;28;20491;-73
2022/11/19 13:21:24;;;;;;;1.60;1.30;;;6.10;98.20;;;;;;5009404;28;20998;-74
2022/11/19 13:23:53;;;;;;;2.10;1.90;;;6.10;98.20;;;;;;5040063;28;20560;-74
2022/11/19 13:26:26;;;;;;;1.63;1.30;;;6.10;98.20;;;;;;5029284;28;20595;-74
2022/11/19 13:28:57;;;;;;;1.60;1.20;;;6.10;98.20;;;;;;5038429;28;21068;-73
2022/11/19 13:31:33;;;;;;;1.60;1.30;;;6.10;98.20;;;;;;5035836;28;20546;-74
2022/11/19 13:34:04;;;;;;;1.70;1.40;;;6.10;98.20;;;;;;5040747;28;20467;-73
2022/11/19 13:36:37;;;;;;;1.70;1.40;;;6.20;98.20;;;;;;5018692;28;20482;-72
2022/11/19 13:39:13;;;;;;;1.60;1.30;;;6.20;98.20;;;;;;5042372;28;21145;-72
2022/11/19 13:44:40;;;;;;;1.67;1.30;;;6.20;98.20;;;;;;5039380;28;20754;-72
2022/11/19 13:47:13;;;;;;;1.67;1.40;;;6.20;98.20;;;;;;5021555;28;20505;-71
2022/11/19 13:49:44;;;;;;;1.60;1.27;;;6.20;98.20;;;;;;5038742;28;20563;-72
2022/11/19 13:52:22;;;;;;;1.60;1.30;;;6.10;98.20;;;;;;5026601;28;20486;-72
2022/11/19 13:54:49;;;;;;;1.60;1.20;;;6.20;98.20;;;;;;5036069;28;20459;-71
2022/11/19 13:57:31;;;;;;;1.63;1.30;;;6.20;98.20;;;;;;5031076;28;20493;-74
2022/11/19 14:00:02;;;;;;;1.60;1.30;;;6.10;98.20;;;;;;5042519;28;20514;-71
2022/11/19 14:02:56;;;;;;;1.60;1.30;;;6.10;98.20;;;;;;5029379;28;20490;-71
2022/11/19 14:06:07;;;;;;;1.60;1.30;;;6.00;98.20;;;;;;5035022;28;20470;-71
2022/11/19 14:08:53;;;;;;;1.60;1.30;;;6.00;98.20;;;;;;4984724;28;20573;-71
2022/11/19 14:11:53;;;;;;;1.60;1.30;;;6.00;98.20;;;;;;5015309;28;20485;-72
2022/11/19 14:27:02;;;;;;;1.60;1.30;;;5.90;98.20;;;;;;5017016;28;20893;-74
2022/11/19 14:29:52;;;;;;;1.60;1.30;;;5.90;98.20;;;;;;5040868;28;20490;-73
2022/11/19 14:32:28;;;;;;;1.60;1.30;;;5.90;98.20;;;;;;5022737;28;20524;-72
2022/11/19 14:35:23;;;;;;;1.67;1.30;;;5.90;98.20;;;;;;5040938;28;20477;-73
2022/11/19 14:37:53;;;;;;;1.60;1.30;;;6.00;98.20;;;;;;5026304;28;21236;-73